Tutti
Flugplatz Altdorf-Wallburg Airport EDSW Meteo
There is no TAF data available at EDSW. Showing TAF data for EDTL (7 mi N).
Previsione area Terminal LHA (nessun dato per EDSW)
| Date | Time (CEST) | Flight Rules | Wind Dir. | Speed | Type | Height AGL (ft) | Visibility | Remarks | ||||||
|---|---|---|---|---|---|---|---|---|---|---|---|---|---|---|
There is no METAR data available at EDSW. Showing METAR data for EDTL (7 mi N).
Storico METAR LHA recente (nessun dato per EDSW)
| Date | Time (CEST) | Flight Rules | Wind Dir. | Speed | Type | Height AGL (ft) | Visibility | Temp (°C) | Temp (°F) | Dew Point (°C) | Dew Point (°F) | Rel. Humid. | Pressure | Density Altitude | Remarks |
|---|---|---|---|---|---|---|---|---|---|---|---|---|---|---|---|
| 02-set | 07:50 | VFR | Calm | Clouds and visibility are OK. | >= 10 km | 14° | 57° | 12° | 53° | 88% | 1021 mb | 161 ft | |||
| 02-set | 07:20 | VFR | Variable | 1 kt | 10000 meters | 12° | 53° | 11° | 51° | 94% | 1021 mb | -79 ft | |||
| 02-set | 06:50 | VFR | 20° | 2 kt | 10000 meters | 11° | 51° | 11° | 51° | 100% | 1021 mb | -199 ft | |||
| 02-set | 06:20 | VFR | Variable | 1 kt | 10000 meters | 13° | 55° | 11° | 51° | 88% | 1021 mb | 41 ft | |||
| 02-set | 05:50 | VFR | 230° | 2 kt | 10000 meters | 14° | 57° | 11° | 51° | 82% | 1021 mb | 161 ft | |||
| 02-set | 05:20 | VFR | Calm | 10000 meters | 12° | 53° | 11° | 51° | 94% | 1021 mb | -79 ft | ||||
| 02-set | 04:50 | VFR | Variable | 3 kt | 10000 meters | 12° | 53° | 11° | 51° | 94% | 1021 mb | -79 ft | |||
| 02-set | 04:20 | VFR | 230° | 2 kt | 10000 meters | 11° | 51° | 11° | 51° | 100% | 1021 mb | -199 ft | |||
| 02-set | 03:50 | VFR | Variable | 1 kt | 10000 meters | 14° | 57° | 12° | 53° | 88% | 1021 mb | 161 ft | |||
| 02-set | 03:20 | VFR | Calm | 10000 meters | 13° | 55° | 12° | 53° | 94% | 1021 mb | 41 ft | ||||
| 02-set | 02:50 | VFR | Calm | 10000 meters | 13° | 55° | 11° | 51° | 88% | 1021 mb | 41 ft | ||||
| 02-set | 02:20 | VFR | Variable | 2 kt | 10000 meters | 14° | 57° | 11° | 51° | 82% | 1021 mb | 161 ft | |||
| 02-set | 01:50 | VFR | 100° | 2 kt | 10000 meters | 16° | 60° | 12° | 53° | 77% | 1021 mb | 401 ft | |||
| 02-set | 01:20 | VFR | Variable | 1 kt | 10000 meters | 15° | 59° | 12° | 53° | 82% | 1021 mb | 281 ft | |||
| 02-set | 00:50 | VFR | Variable | 1 kt | 10000 meters | 16° | 60° | 14° | 57° | 88% | 1021 mb | 401 ft | |||
| 02-set | 00:20 | VFR | 300° | 2 kt | Few |
19.000 |
10000 meters | 15° | 59° | 12° | 53° | 82% | 1021 mb | 281 ft | |
| 01-set | 23:50 | VFR | Calm | 10000 meters | 16° | 60° | 12° | 53° | 77% | 1021 mb | 401 ft | ||||
| 01-set | 23:20 | VFR | Variable | 2 kt | 10000 meters | 17° | 62° | 12° | 53° | 72% | 1021 mb | 521 ft | |||
| 01-set | 22:50 | VFR | 90° | 2 kt | 10000 meters | 18° | 64° | 13° | 55° | 73% | 1021 mb | 641 ft | |||
| 01-set | 22:20 | VFR | 90° | 3 kt | 10000 meters | 18° | 64° | 12° | 53° | 68% | 1021 mb | 641 ft | |||
| 01-set | 21:50 | VFR | Variable | 3 kt | 10000 meters | 18° | 64° | 12° | 53° | 68% | 1021 mb | 641 ft | |||
| 01-set | 21:20 | VFR | 80° | 3 kt | 10000 meters | 20° | 68° | 13° | 55° | 64% | 1021 mb | 881 ft | |||
| 01-set | 20:50 | VFR | 90° | 3 kt | 10000 meters | 21° | 69° | 12° | 53° | 56% | 1021 mb | 1.001 ft | |||
| 01-set | 20:20 | VFR | Variable | 3 kt | 10000 meters | 22° | 71° | 12° | 53° | 53% | 1020 mb | 1.150 ft |
Accedi
| Il tuo browser non è supportato. fai l'upgrade del tuo browser |
